sensor_id;sensor_type;location;lat;lon;timestamp;temperature;humidity
4826;DHT22;2427;50.934;6.776;2023-06-10T00:00:17;19.00;99.90
4826;DHT22;2427;50.934;6.776;2023-06-10T00:02:43;19.00;99.90
4826;DHT22;2427;50.934;6.776;2023-06-10T00:05:09;18.90;99.90
4826;DHT22;2427;50.934;6.776;2023-06-10T00:07:35;18.90;99.90
4826;DHT22;2427;50.934;6.776;2023-06-10T00:10:06;18.80;99.90
4826;DHT22;2427;50.934;6.776;2023-06-10T00:12:32;18.80;99.90
4826;DHT22;2427;50.934;6.776;2023-06-10T00:15:05;18.80;99.90
4826;DHT22;2427;50.934;6.776;2023-06-10T00:17:31;18.70;99.90
4826;DHT22;2427;50.934;6.776;2023-06-10T00:19:58;18.70;99.90
4826;DHT22;2427;50.934;6.776;2023-06-10T00:22:23;18.60;99.90
4826;DHT22;2427;50.934;6.776;2023-06-10T00:24:49;18.60;99.90
4826;DHT22;2427;50.934;6.776;2023-06-10T00:27:16;18.60;99.90
4826;DHT22;2427;50.934;6.776;2023-06-10T00:29:41;18.50;99.90
4826;DHT22;2427;50.934;6.776;2023-06-10T00:32:07;18.50;99.90
4826;DHT22;2427;50.934;6.776;2023-06-10T00:34:33;18.50;99.90
4826;DHT22;2427;50.934;6.776;2023-06-10T00:36:59;18.50;99.90
4826;DHT22;2427;50.934;6.776;2023-06-10T00:39:24;18.50;99.90
4826;DHT22;2427;50.934;6.776;2023-06-10T00:41:50;18.50;99.90
4826;DHT22;2427;50.934;6.776;2023-06-10T00:44:16;18.40;99.90
4826;DHT22;2427;50.934;6.776;2023-06-10T00:46:42;18.40;99.90
4826;DHT22;2427;50.934;6.776;2023-06-10T00:49:08;18.40;99.90
4826;DHT22;2427;50.934;6.776;2023-06-10T00:51:34;18.30;99.90
4826;DHT22;2427;50.934;6.776;2023-06-10T00:54:00;18.30;99.90
4826;DHT22;2427;50.934;6.776;2023-06-10T00:56:26;18.20;99.90
4826;DHT22;2427;50.934;6.776;2023-06-10T00:58:53;18.20;99.90
4826;DHT22;2427;50.934;6.776;2023-06-10T01:11:47;18.00;99.90
4826;DHT22;2427;50.934;6.776;2023-06-10T01:14:13;18.00;99.90
4826;DHT22;2427;50.934;6.776;2023-06-10T01:16:43;18.00;99.90
4826;DHT22;2427;50.934;6.776;2023-06-10T01:19:11;18.00;99.90
4826;DHT22;2427;50.934;6.776;2023-06-10T01:21:38;17.90;99.90
4826;DHT22;2427;50.934;6.776;2023-06-10T01:24:04;17.90;99.90
4826;DHT22;2427;50.934;6.776;2023-06-10T01:26:34;17.90;99.90
4826;DHT22;2427;50.934;6.776;2023-06-10T01:31:41;17.80;99.90
4826;DHT22;2427;50.934;6.776;2023-06-10T01:34:11;17.80;99.90
4826;DHT22;2427;50.934;6.776;2023-06-10T01:36:38;17.70;99.90
4826;DHT22;2427;50.934;6.776;2023-06-10T01:39:05;17.70;99.90
4826;DHT22;2427;50.934;6.776;2023-06-10T01:41:34;17.70;99.90
4826;DHT22;2427;50.934;6.776;2023-06-10T01:44:00;17.70;1.00
4826;DHT22;2427;50.934;6.776;2023-06-10T01:46:26;17.80;99.90
4826;DHT22;2427;50.934;6.776;2023-06-10T01:48:52;17.70;99.90
4826;DHT22;2427;50.934;6.776;2023-06-10T01:51:17;17.70;99.90
4826;DHT22;2427;50.934;6.776;2023-06-10T01:53:43;17.80;99.90
4826;DHT22;2427;50.934;6.776;2023-06-10T01:56:09;17.80;99.90
4826;DHT22;2427;50.934;6.776;2023-06-10T01:58:35;17.80;99.90
4826;DHT22;2427;50.934;6.776;2023-06-10T02:01:00;17.80;99.90
4826;DHT22;2427;50.934;6.776;2023-06-10T02:03:26;17.80;99.90
4826;DHT22;2427;50.934;6.776;2023-06-10T02:05:52;17.70;99.90
4826;DHT22;2427;50.934;6.776;2023-06-10T02:08:17;17.70;99.90
4826;DHT22;2427;50.934;6.776;2023-06-10T02:10:43;17.60;99.90
4826;DHT22;2427;50.934;6.776;2023-06-10T02:13:09;17.60;99.90
4826;DHT22;2427;50.934;6.776;2023-06-10T02:15:35;17.60;99.90
4826;DHT22;2427;50.934;6.776;2023-06-10T02:18:00;17.60;99.90
4826;DHT22;2427;50.934;6.776;2023-06-10T02:20:27;17.60;99.90
4826;DHT22;2427;50.934;6.776;2023-06-10T02:22:52;17.50;99.90
4826;DHT22;2427;50.934;6.776;2023-06-10T02:25:18;17.50;99.90
4826;DHT22;2427;50.934;6.776;2023-06-10T02:27:44;17.50;99.90
4826;DHT22;2427;50.934;6.776;2023-06-10T02:30:10;17.40;99.90
4826;DHT22;2427;50.934;6.776;2023-06-10T02:32:36;17.40;1.00
4826;DHT22;2427;50.934;6.776;2023-06-10T02:35:01;17.40;1.00
4826;DHT22;2427;50.934;6.776;2023-06-10T02:37:27;17.40;1.00
4826;DHT22;2427;50.934;6.776;2023-06-10T02:39:53;17.30;1.00
4826;DHT22;2427;50.934;6.776;2023-06-10T02:42:18;17.30;1.00
4826;DHT22;2427;50.934;6.776;2023-06-10T02:44:44;17.20;1.00
4826;DHT22;2427;50.934;6.776;2023-06-10T02:47:10;17.20;1.00
4826;DHT22;2427;50.934;6.776;2023-06-10T02:49:35;17.20;1.00
4826;DHT22;2427;50.934;6.776;2023-06-10T02:52:01;17.10;1.00
4826;DHT22;2427;50.934;6.776;2023-06-10T02:54:26;17.10;1.00
4826;DHT22;2427;50.934;6.776;2023-06-10T02:56:52;17.10;1.00
4826;DHT22;2427;50.934;6.776;2023-06-10T02:59:18;17.00;1.00
4826;DHT22;2427;50.934;6.776;2023-06-10T03:01:46;16.90;1.00
4826;DHT22;2427;50.934;6.776;2023-06-10T03:04:12;16.90;1.00
4826;DHT22;2427;50.934;6.776;2023-06-10T03:06:39;16.90;1.00
4826;DHT22;2427;50.934;6.776;2023-06-10T03:09:06;16.90;1.00
4826;DHT22;2427;50.934;6.776;2023-06-10T03:11:33;16.80;1.00
4826;DHT22;2427;50.934;6.776;2023-06-10T03:13:58;16.80;1.00
4826;DHT22;2427;50.934;6.776;2023-06-10T03:16:24;16.80;1.00
4826;DHT22;2427;50.934;6.776;2023-06-10T03:18:53;16.80;1.00
4826;DHT22;2427;50.934;6.776;2023-06-10T03:21:19;16.80;1.00
4826;DHT22;2427;50.934;6.776;2023-06-10T03:23:45;16.80;1.00
4826;DHT22;2427;50.934;6.776;2023-06-10T03:26:11;16.80;1.00
4826;DHT22;2427;50.934;6.776;2023-06-10T03:28:37;16.80;1.00
4826;DHT22;2427;50.934;6.776;2023-06-10T03:31:03;16.80;1.00
4826;DHT22;2427;50.934;6.776;2023-06-10T03:33:28;16.70;1.00
4826;DHT22;2427;50.934;6.776;2023-06-10T03:35:55;16.80;1.00
4826;DHT22;2427;50.934;6.776;2023-06-10T03:38:20;16.70;1.00
4826;DHT22;2427;50.934;6.776;2023-06-10T03:40:46;16.70;1.00
4826;DHT22;2427;50.934;6.776;2023-06-10T03:43:12;16.70;1.00
4826;DHT22;2427;50.934;6.776;2023-06-10T03:45:38;16.70;1.00
4826;DHT22;2427;50.934;6.776;2023-06-10T03:48:03;16.70;1.00
4826;DHT22;2427;50.934;6.776;2023-06-10T03:50:29;16.70;1.00
4826;DHT22;2427;50.934;6.776;2023-06-10T03:52:55;16.70;1.00
4826;DHT22;2427;50.934;6.776;2023-06-10T03:55:21;16.70;1.00
4826;DHT22;2427;50.934;6.776;2023-06-10T03:57:47;16.70;1.00
4826;DHT22;2427;50.934;6.776;2023-06-10T04:00:14;16.70;1.00
4826;DHT22;2427;50.934;6.776;2023-06-10T04:02:40;16.70;1.00
4826;DHT22;2427;50.934;6.776;2023-06-10T04:05:16;16.70;1.00
4826;DHT22;2427;50.934;6.776;2023-06-10T04:07:45;16.80;1.00
4826;DHT22;2427;50.934;6.776;2023-06-10T04:10:11;16.80;1.00
4826;DHT22;2427;50.934;6.776;2023-06-10T04:12:37;16.90;1.00
4826;DHT22;2427;50.934;6.776;2023-06-10T04:15:04;16.90;1.00
4826;DHT22;2427;50.934;6.776;2023-06-10T04:17:30;16.90;1.00
4826;DHT22;2427;50.934;6.776;2023-06-10T04:19:56;17.00;1.00
4826;DHT22;2427;50.934;6.776;2023-06-10T04:22:22;17.00;1.00
4826;DHT22;2427;50.934;6.776;2023-06-10T04:24:48;17.00;1.00
4826;DHT22;2427;50.934;6.776;2023-06-10T04:27:14;17.10;1.00
4826;DHT22;2427;50.934;6.776;2023-06-10T04:29:39;17.20;1.00
4826;DHT22;2427;50.934;6.776;2023-06-10T04:32:05;17.20;1.00
4826;DHT22;2427;50.934;6.776;2023-06-10T04:34:33;17.30;1.00
4826;DHT22;2427;50.934;6.776;2023-06-10T04:36:59;17.40;1.00
4826;DHT22;2427;50.934;6.776;2023-06-10T04:39:24;17.50;1.00
4826;DHT22;2427;50.934;6.776;2023-06-10T04:41:50;17.50;1.00
4826;DHT22;2427;50.934;6.776;2023-06-10T04:44:15;17.60;1.00
4826;DHT22;2427;50.934;6.776;2023-06-10T04:46:41;17.70;1.00
4826;DHT22;2427;50.934;6.776;2023-06-10T04:49:06;17.80;1.00
4826;DHT22;2427;50.934;6.776;2023-06-10T04:51:32;17.80;1.00
4826;DHT22;2427;50.934;6.776;2023-06-10T04:53:58;17.90;1.00
4826;DHT22;2427;50.934;6.776;2023-06-10T04:56:25;18.00;1.00
4826;DHT22;2427;50.934;6.776;2023-06-10T04:58:50;18.10;1.00
4826;DHT22;2427;50.934;6.776;2023-06-10T05:01:16;18.20;1.00
4826;DHT22;2427;50.934;6.776;2023-06-10T05:03:41;18.30;1.00
4826;DHT22;2427;50.934;6.776;2023-06-10T05:06:07;18.40;1.00
4826;DHT22;2427;50.934;6.776;2023-06-10T05:08:33;18.50;1.00
4826;DHT22;2427;50.934;6.776;2023-06-10T05:10:59;18.60;1.00
4826;DHT22;2427;50.934;6.776;2023-06-10T05:13:24;18.70;1.00
4826;DHT22;2427;50.934;6.776;2023-06-10T05:15:50;18.90;1.00
4826;DHT22;2427;50.934;6.776;2023-06-10T05:18:15;19.00;1.00
4826;DHT22;2427;50.934;6.776;2023-06-10T05:20:41;19.10;1.00
4826;DHT22;2427;50.934;6.776;2023-06-10T05:23:06;19.20;1.00
4826;DHT22;2427;50.934;6.776;2023-06-10T05:25:32;19.30;99.90
4826;DHT22;2427;50.934;6.776;2023-06-10T05:27:58;19.40;99.90
4826;DHT22;2427;50.934;6.776;2023-06-10T05:30:24;19.60;99.90
4826;DHT22;2427;50.934;6.776;2023-06-10T05:32:51;19.60;99.90
4826;DHT22;2427;50.934;6.776;2023-06-10T05:35:17;19.80;99.90
4826;DHT22;2427;50.934;6.776;2023-06-10T05:37:43;19.90;99.90
4826;DHT22;2427;50.934;6.776;2023-06-10T05:40:09;20.00;99.90
4826;DHT22;2427;50.934;6.776;2023-06-10T05:42:35;20.10;99.90
4826;DHT22;2427;50.934;6.776;2023-06-10T05:45:01;20.10;99.90
4826;DHT22;2427;50.934;6.776;2023-06-10T05:47:27;20.20;99.90
4826;DHT22;2427;50.934;6.776;2023-06-10T05:49:53;20.30;99.90
4826;DHT22;2427;50.934;6.776;2023-06-10T05:52:18;20.40;99.90
4826;DHT22;2427;50.934;6.776;2023-06-10T05:54:44;20.40;99.90
4826;DHT22;2427;50.934;6.776;2023-06-10T05:57:10;20.50;99.90
4826;DHT22;2427;50.934;6.776;2023-06-10T05:59:36;20.60;99.90
4826;DHT22;2427;50.934;6.776;2023-06-10T06:02:01;20.70;99.90
4826;DHT22;2427;50.934;6.776;2023-06-10T06:04:27;20.70;99.90
4826;DHT22;2427;50.934;6.776;2023-06-10T06:06:52;20.80;99.90
4826;DHT22;2427;50.934;6.776;2023-06-10T06:09:18;20.90;99.90
4826;DHT22;2427;50.934;6.776;2023-06-10T06:11:44;21.00;99.90
4826;DHT22;2427;50.934;6.776;2023-06-10T06:14:09;21.00;99.90
4826;DHT22;2427;50.934;6.776;2023-06-10T06:16:35;21.10;99.90
4826;DHT22;2427;50.934;6.776;2023-06-10T06:19:00;21.20;99.90
4826;DHT22;2427;50.934;6.776;2023-06-10T06:21:26;21.30;99.90
4826;DHT22;2427;50.934;6.776;2023-06-10T06:23:52;21.40;99.90
4826;DHT22;2427;50.934;6.776;2023-06-10T06:26:17;21.50;99.90
4826;DHT22;2427;50.934;6.776;2023-06-10T06:28:43;21.50;99.90
4826;DHT22;2427;50.934;6.776;2023-06-10T06:31:08;21.60;99.90
4826;DHT22;2427;50.934;6.776;2023-06-10T06:33:34;21.70;99.90
4826;DHT22;2427;50.934;6.776;2023-06-10T06:35:59;21.80;99.90
4826;DHT22;2427;50.934;6.776;2023-06-10T06:38:28;21.90;99.90
4826;DHT22;2427;50.934;6.776;2023-06-10T06:40:53;21.90;99.90
4826;DHT22;2427;50.934;6.776;2023-06-10T06:43:19;22.00;99.90
4826;DHT22;2427;50.934;6.776;2023-06-10T06:45:45;22.10;99.90
4826;DHT22;2427;50.934;6.776;2023-06-10T06:48:11;22.20;99.90
4826;DHT22;2427;50.934;6.776;2023-06-10T06:50:37;22.30;99.90
4826;DHT22;2427;50.934;6.776;2023-06-10T06:53:04;22.30;99.90
4826;DHT22;2427;50.934;6.776;2023-06-10T06:55:29;22.40;99.90
4826;DHT22;2427;50.934;6.776;2023-06-10T06:57:55;22.50;99.90
4826;DHT22;2427;50.934;6.776;2023-06-10T07:00:21;22.60;99.90
4826;DHT22;2427;50.934;6.776;2023-06-10T07:02:47;22.70;99.90
4826;DHT22;2427;50.934;6.776;2023-06-10T07:05:12;22.80;99.90
4826;DHT22;2427;50.934;6.776;2023-06-10T07:07:38;22.80;99.90
4826;DHT22;2427;50.934;6.776;2023-06-10T07:10:04;22.90;99.90
4826;DHT22;2427;50.934;6.776;2023-06-10T07:12:29;23.00;99.90
4826;DHT22;2427;50.934;6.776;2023-06-10T07:14:55;23.00;99.90
4826;DHT22;2427;50.934;6.776;2023-06-10T07:17:21;23.10;99.90
4826;DHT22;2427;50.934;6.776;2023-06-10T07:19:46;23.20;99.90
4826;DHT22;2427;50.934;6.776;2023-06-10T07:22:12;23.20;99.90
4826;DHT22;2427;50.934;6.776;2023-06-10T07:24:37;23.30;99.90
4826;DHT22;2427;50.934;6.776;2023-06-10T07:27:03;23.40;99.90
4826;DHT22;2427;50.934;6.776;2023-06-10T07:29:29;23.40;99.90
4826;DHT22;2427;50.934;6.776;2023-06-10T07:31:54;23.50;99.90
4826;DHT22;2427;50.934;6.776;2023-06-10T07:34:20;23.50;99.90
4826;DHT22;2427;50.934;6.776;2023-06-10T07:36:45;23.60;99.90
4826;DHT22;2427;50.934;6.776;2023-06-10T07:39:11;23.70;99.90
4826;DHT22;2427;50.934;6.776;2023-06-10T07:41:37;23.80;99.90
4826;DHT22;2427;50.934;6.776;2023-06-10T07:44:02;23.80;99.90
4826;DHT22;2427;50.934;6.776;2023-06-10T07:46:28;23.90;99.90
4826;DHT22;2427;50.934;6.776;2023-06-10T07:48:54;24.00;99.90
4826;DHT22;2427;50.934;6.776;2023-06-10T07:51:21;24.10;99.90
4826;DHT22;2427;50.934;6.776;2023-06-10T07:53:47;24.10;99.90
4826;DHT22;2427;50.934;6.776;2023-06-10T07:56:12;24.20;99.90
4826;DHT22;2427;50.934;6.776;2023-06-10T07:58:38;24.20;99.90
4826;DHT22;2427;50.934;6.776;2023-06-10T08:01:04;24.30;99.90
4826;DHT22;2427;50.934;6.776;2023-06-10T08:03:29;24.30;99.90
4826;DHT22;2427;50.934;6.776;2023-06-10T08:05:55;24.40;99.90
4826;DHT22;2427;50.934;6.776;2023-06-10T08:08:20;24.40;99.90
4826;DHT22;2427;50.934;6.776;2023-06-10T08:10:46;24.50;99.90
4826;DHT22;2427;50.934;6.776;2023-06-10T08:13:12;24.60;99.90
4826;DHT22;2427;50.934;6.776;2023-06-10T08:15:37;24.70;99.90
4826;DHT22;2427;50.934;6.776;2023-06-10T08:18:03;24.80;99.90
4826;DHT22;2427;50.934;6.776;2023-06-10T08:20:29;24.80;99.90
4826;DHT22;2427;50.934;6.776;2023-06-10T08:22:54;24.80;99.90
4826;DHT22;2427;50.934;6.776;2023-06-10T08:25:20;24.70;99.90
4826;DHT22;2427;50.934;6.776;2023-06-10T08:27:47;24.80;99.90
4826;DHT22;2427;50.934;6.776;2023-06-10T08:30:13;24.90;99.90
4826;DHT22;2427;50.934;6.776;2023-06-10T08:32:38;24.90;99.90
4826;DHT22;2427;50.934;6.776;2023-06-10T08:35:04;25.00;99.90
4826;DHT22;2427;50.934;6.776;2023-06-10T08:37:30;25.10;99.90
4826;DHT22;2427;50.934;6.776;2023-06-10T08:39:56;25.20;99.90
4826;DHT22;2427;50.934;6.776;2023-06-10T08:42:28;25.20;99.90
4826;DHT22;2427;50.934;6.776;2023-06-10T08:44:59;25.30;99.90
4826;DHT22;2427;50.934;6.776;2023-06-10T08:47:29;25.30;99.90
4826;DHT22;2427;50.934;6.776;2023-06-10T08:50:02;25.50;99.90
4826;DHT22;2427;50.934;6.776;2023-06-10T08:52:36;25.60;99.90
4826;DHT22;2427;50.934;6.776;2023-06-10T08:55:13;25.70;99.90
4826;DHT22;2427;50.934;6.776;2023-06-10T08:57:41;25.80;99.90
4826;DHT22;2427;50.934;6.776;2023-06-10T09:00:08;26.00;99.90
4826;DHT22;2427;50.934;6.776;2023-06-10T09:02:34;26.10;99.90
4826;DHT22;2427;50.934;6.776;2023-06-10T09:05:02;26.10;99.90
4826;DHT22;2427;50.934;6.776;2023-06-10T09:07:30;26.20;99.90
4826;DHT22;2427;50.934;6.776;2023-06-10T09:09:57;26.20;99.90
4826;DHT22;2427;50.934;6.776;2023-06-10T09:12:24;26.30;99.90
4826;DHT22;2427;50.934;6.776;2023-06-10T09:14:49;26.40;99.90
4826;DHT22;2427;50.934;6.776;2023-06-10T09:17:16;26.40;99.90
4826;DHT22;2427;50.934;6.776;2023-06-10T09:19:42;26.50;99.90
4826;DHT22;2427;50.934;6.776;2023-06-10T09:22:09;26.50;99.90
4826;DHT22;2427;50.934;6.776;2023-06-10T09:24:35;26.70;99.90
4826;DHT22;2427;50.934;6.776;2023-06-10T09:27:08;26.80;99.90
4826;DHT22;2427;50.934;6.776;2023-06-10T09:29:57;26.90;99.90
4826;DHT22;2427;50.934;6.776;2023-06-10T09:32:24;27.00;99.90
4826;DHT22;2427;50.934;6.776;2023-06-10T09:34:50;27.00;99.90
4826;DHT22;2427;50.934;6.776;2023-06-10T09:37:25;27.10;99.90
4826;DHT22;2427;50.934;6.776;2023-06-10T09:40:03;27.20;99.90
4826;DHT22;2427;50.934;6.776;2023-06-10T09:42:33;27.30;99.90
4826;DHT22;2427;50.934;6.776;2023-06-10T09:44:59;27.40;99.90
4826;DHT22;2427;50.934;6.776;2023-06-10T09:47:25;27.50;99.90
4826;DHT22;2427;50.934;6.776;2023-06-10T09:49:51;27.60;99.90
4826;DHT22;2427;50.934;6.776;2023-06-10T09:52:22;27.70;99.90
4826;DHT22;2427;50.934;6.776;2023-06-10T09:54:50;27.80;99.90
4826;DHT22;2427;50.934;6.776;2023-06-10T09:57:17;27.80;99.90
4826;DHT22;2427;50.934;6.776;2023-06-10T09:59:42;27.90;99.90
4826;DHT22;2427;50.934;6.776;2023-06-10T10:02:17;28.10;99.90
4826;DHT22;2427;50.934;6.776;2023-06-10T10:04:43;28.20;99.90
4826;DHT22;2427;50.934;6.776;2023-06-10T10:07:10;28.30;99.90
4826;DHT22;2427;50.934;6.776;2023-06-10T10:09:40;28.40;99.90
4826;DHT22;2427;50.934;6.776;2023-06-10T10:12:10;28.50;99.90
4826;DHT22;2427;50.934;6.776;2023-06-10T10:14:37;28.60;99.90
4826;DHT22;2427;50.934;6.776;2023-06-10T10:17:05;28.60;99.90
4826;DHT22;2427;50.934;6.776;2023-06-10T10:19:36;28.70;99.90
4826;DHT22;2427;50.934;6.776;2023-06-10T10:22:08;28.80;99.90
4826;DHT22;2427;50.934;6.776;2023-06-10T10:24:39;28.80;99.90
4826;DHT22;2427;50.934;6.776;2023-06-10T10:27:11;28.90;99.90
4826;DHT22;2427;50.934;6.776;2023-06-10T10:29:40;28.90;99.90
4826;DHT22;2427;50.934;6.776;2023-06-10T10:32:07;29.00;99.90
4826;DHT22;2427;50.934;6.776;2023-06-10T10:36:58;29.00;99.90
4826;DHT22;2427;50.934;6.776;2023-06-10T10:39:24;29.00;99.80
4826;DHT22;2427;50.934;6.776;2023-06-10T10:41:51;29.10;98.60
4826;DHT22;2427;50.934;6.776;2023-06-10T10:44:17;29.10;98.40
4826;DHT22;2427;50.934;6.776;2023-06-10T10:46:44;29.20;98.50
4826;DHT22;2427;50.934;6.776;2023-06-10T10:49:14;29.30;97.60
4826;DHT22;2427;50.934;6.776;2023-06-10T10:51:57;29.30;97.90
4826;DHT22;2427;50.934;6.776;2023-06-10T10:54:34;29.50;97.90
4826;DHT22;2427;50.934;6.776;2023-06-10T10:57:09;29.60;96.80
4826;DHT22;2427;50.934;6.776;2023-06-10T11:02:36;29.80;96.10
4826;DHT22;2427;50.934;6.776;2023-06-10T11:05:06;30.00;95.60
4826;DHT22;2427;50.934;6.776;2023-06-10T11:07:34;30.10;96.00
4826;DHT22;2427;50.934;6.776;2023-06-10T11:10:05;30.20;95.50
4826;DHT22;2427;50.934;6.776;2023-06-10T11:12:50;30.30;94.40
4826;DHT22;2427;50.934;6.776;2023-06-10T11:15:24;30.30;92.50
4826;DHT22;2427;50.934;6.776;2023-06-10T11:18:09;30.40;92.90
4826;DHT22;2427;50.934;6.776;2023-06-10T11:20:59;30.60;93.20
4826;DHT22;2427;50.934;6.776;2023-06-10T11:31:42;31.40;90.00
4826;DHT22;2427;50.934;6.776;2023-06-10T11:34:08;31.50;86.20
4826;DHT22;2427;50.934;6.776;2023-06-10T11:36:37;31.60;83.60
4826;DHT22;2427;50.934;6.776;2023-06-10T11:39:06;31.80;79.50
4826;DHT22;2427;50.934;6.776;2023-06-10T11:41:32;31.90;75.60
4826;DHT22;2427;50.934;6.776;2023-06-10T11:44:04;32.10;73.50
4826;DHT22;2427;50.934;6.776;2023-06-10T11:46:30;32.20;69.40
4826;DHT22;2427;50.934;6.776;2023-06-10T11:48:58;32.40;69.50
4826;DHT22;2427;50.934;6.776;2023-06-10T11:51:29;32.60;66.40
4826;DHT22;2427;50.934;6.776;2023-06-10T11:53:55;32.70;66.40
4826;DHT22;2427;50.934;6.776;2023-06-10T11:56:23;32.30;61.40
4826;DHT22;2427;50.934;6.776;2023-06-10T11:58:56;31.90;62.70
4826;DHT22;2427;50.934;6.776;2023-06-10T12:01:24;31.80;62.30
4826;DHT22;2427;50.934;6.776;2023-06-10T12:04:05;31.60;61.90
4826;DHT22;2427;50.934;6.776;2023-06-10T12:06:41;31.50;62.70
4826;DHT22;2427;50.934;6.776;2023-06-10T12:09:28;31.40;63.40
4826;DHT22;2427;50.934;6.776;2023-06-10T12:12:00;31.60;66.00
4826;DHT22;2427;50.934;6.776;2023-06-10T12:14:55;31.80;66.90
4826;DHT22;2427;50.934;6.776;2023-06-10T12:17:36;31.80;61.30
4826;DHT22;2427;50.934;6.776;2023-06-10T12:20:09;31.50;56.70
4826;DHT22;2427;50.934;6.776;2023-06-10T12:22:49;31.50;55.90
4826;DHT22;2427;50.934;6.776;2023-06-10T12:25:15;32.00;56.20
4826;DHT22;2427;50.934;6.776;2023-06-10T12:27:53;32.60;55.60
4826;DHT22;2427;50.934;6.776;2023-06-10T12:30:23;32.80;52.60
4826;DHT22;2427;50.934;6.776;2023-06-10T12:32:50;33.20;49.80
4826;DHT22;2427;50.934;6.776;2023-06-10T12:35:18;33.10;47.60
4826;DHT22;2427;50.934;6.776;2023-06-10T12:37:58;33.10;45.70
4826;DHT22;2427;50.934;6.776;2023-06-10T12:40:34;33.10;47.30
4826;DHT22;2427;50.934;6.776;2023-06-10T12:43:01;33.00;47.50
4826;DHT22;2427;50.934;6.776;2023-06-10T12:45:30;32.80;44.70
4826;DHT22;2427;50.934;6.776;2023-06-10T12:48:12;32.70;43.10
4826;DHT22;2427;50.934;6.776;2023-06-10T12:50:42;32.60;41.90
4826;DHT22;2427;50.934;6.776;2023-06-10T12:53:10;32.80;42.10
4826;DHT22;2427;50.934;6.776;2023-06-10T12:55:39;33.30;43.40
4826;DHT22;2427;50.934;6.776;2023-06-10T12:58:04;34.00;44.00
4826;DHT22;2427;50.934;6.776;2023-06-10T13:00:30;34.20;43.20
4826;DHT22;2427;50.934;6.776;2023-06-10T13:02:57;34.60;41.00
4826;DHT22;2427;50.934;6.776;2023-06-10T13:05:22;34.70;38.30
4826;DHT22;2427;50.934;6.776;2023-06-10T13:07:48;34.90;37.00
4826;DHT22;2427;50.934;6.776;2023-06-10T13:10:15;34.90;35.10
4826;DHT22;2427;50.934;6.776;2023-06-10T13:12:42;34.90;33.60
4826;DHT22;2427;50.934;6.776;2023-06-10T13:15:08;35.00;31.60
4826;DHT22;2427;50.934;6.776;2023-06-10T13:17:34;35.10;29.70
4826;DHT22;2427;50.934;6.776;2023-06-10T13:20:05;34.90;27.70
4826;DHT22;2427;50.934;6.776;2023-06-10T13:22:31;34.60;24.80
4826;DHT22;2427;50.934;6.776;2023-06-10T13:24:58;34.70;24.60
4826;DHT22;2427;50.934;6.776;2023-06-10T13:27:25;34.90;24.20
4826;DHT22;2427;50.934;6.776;2023-06-10T13:29:50;35.10;22.20
4826;DHT22;2427;50.934;6.776;2023-06-10T13:32:16;35.40;21.60
4826;DHT22;2427;50.934;6.776;2023-06-10T13:34:41;35.60;18.60
4826;DHT22;2427;50.934;6.776;2023-06-10T13:37:07;35.70;17.60
4826;DHT22;2427;50.934;6.776;2023-06-10T13:39:32;36.00;16.90
4826;DHT22;2427;50.934;6.776;2023-06-10T13:41:58;36.10;14.80
4826;DHT22;2427;50.934;6.776;2023-06-10T13:44:24;36.10;13.60
4826;DHT22;2427;50.934;6.776;2023-06-10T13:46:49;36.30;13.10
4826;DHT22;2427;50.934;6.776;2023-06-10T13:49:15;36.40;11.60
4826;DHT22;2427;50.934;6.776;2023-06-10T13:51:40;36.50;9.50
4826;DHT22;2427;50.934;6.776;2023-06-10T13:54:06;36.40;7.20
4826;DHT22;2427;50.934;6.776;2023-06-10T13:56:32;36.50;7.00
4826;DHT22;2427;50.934;6.776;2023-06-10T13:59:03;36.70;5.80
4826;DHT22;2427;50.934;6.776;2023-06-10T14:01:28;37.00;14.50
4826;DHT22;2427;50.934;6.776;2023-06-10T14:03:54;37.20;4.70
4826;DHT22;2427;50.934;6.776;2023-06-10T14:06:20;37.30;3.30
4826;DHT22;2427;50.934;6.776;2023-06-10T14:08:45;37.40;2.90
4826;DHT22;2427;50.934;6.776;2023-06-10T14:11:11;37.50;2.30
4826;DHT22;2427;50.934;6.776;2023-06-10T14:13:36;37.40;1.00
4826;DHT22;2427;50.934;6.776;2023-06-10T14:16:04;37.60;1.00
4826;DHT22;2427;50.934;6.776;2023-06-10T14:18:30;38.10;1.00
4826;DHT22;2427;50.934;6.776;2023-06-10T14:20:55;38.60;1.00
4826;DHT22;2427;50.934;6.776;2023-06-10T14:23:21;38.40;1.00
4826;DHT22;2427;50.934;6.776;2023-06-10T14:25:46;39.60;1.00
4826;DHT22;2427;50.934;6.776;2023-06-10T14:28:12;40.80;1.00
4826;DHT22;2427;50.934;6.776;2023-06-10T14:30:37;41.70;1.00
4826;DHT22;2427;50.934;6.776;2023-06-10T14:33:03;42.60;1.00
4826;DHT22;2427;50.934;6.776;2023-06-10T14:35:28;43.00;1.00
4826;DHT22;2427;50.934;6.776;2023-06-10T14:37:54;43.60;1.00
4826;DHT22;2427;50.934;6.776;2023-06-10T14:40:20;43.70;1.00
4826;DHT22;2427;50.934;6.776;2023-06-10T14:42:50;43.90;1.00
4826;DHT22;2427;50.934;6.776;2023-06-10T14:45:15;44.30;1.00
4826;DHT22;2427;50.934;6.776;2023-06-10T14:47:41;44.30;1.00
4826;DHT22;2427;50.934;6.776;2023-06-10T14:50:07;44.60;1.00
4826;DHT22;2427;50.934;6.776;2023-06-10T14:52:32;44.80;1.00
4826;DHT22;2427;50.934;6.776;2023-06-10T14:54:58;45.00;1.00
4826;DHT22;2427;50.934;6.776;2023-06-10T14:57:23;44.90;1.00
4826;DHT22;2427;50.934;6.776;2023-06-10T14:59:49;45.10;1.00
4826;DHT22;2427;50.934;6.776;2023-06-10T15:02:15;45.20;1.00
4826;DHT22;2427;50.934;6.776;2023-06-10T15:04:40;45.80;1.00
4826;DHT22;2427;50.934;6.776;2023-06-10T15:07:06;45.60;1.00
4826;DHT22;2427;50.934;6.776;2023-06-10T15:09:31;45.20;1.00
4826;DHT22;2427;50.934;6.776;2023-06-10T15:11:57;45.40;1.00
4826;DHT22;2427;50.934;6.776;2023-06-10T15:14:24;45.60;1.00
4826;DHT22;2427;50.934;6.776;2023-06-10T15:16:51;46.00;1.00
4826;DHT22;2427;50.934;6.776;2023-06-10T15:19:16;46.10;1.00
4826;DHT22;2427;50.934;6.776;2023-06-10T15:21:42;46.00;1.00
4826;DHT22;2427;50.934;6.776;2023-06-10T15:24:08;45.80;1.00
4826;DHT22;2427;50.934;6.776;2023-06-10T15:26:33;45.70;1.00
4826;DHT22;2427;50.934;6.776;2023-06-10T15:28:59;45.20;1.00
4826;DHT22;2427;50.934;6.776;2023-06-10T15:31:29;44.50;1.00
4826;DHT22;2427;50.934;6.776;2023-06-10T15:33:55;44.60;1.00
4826;DHT22;2427;50.934;6.776;2023-06-10T15:36:21;44.80;1.00
4826;DHT22;2427;50.934;6.776;2023-06-10T15:38:46;45.00;1.00
4826;DHT22;2427;50.934;6.776;2023-06-10T15:41:13;45.00;1.00
4826;DHT22;2427;50.934;6.776;2023-06-10T15:43:38;44.20;1.00
4826;DHT22;2427;50.934;6.776;2023-06-10T15:46:05;44.30;1.00
4826;DHT22;2427;50.934;6.776;2023-06-10T15:48:30;44.60;1.00
4826;DHT22;2427;50.934;6.776;2023-06-10T15:50:56;44.90;1.00
4826;DHT22;2427;50.934;6.776;2023-06-10T15:53:21;45.00;1.00
4826;DHT22;2427;50.934;6.776;2023-06-10T15:55:47;45.10;1.00
4826;DHT22;2427;50.934;6.776;2023-06-10T15:58:12;45.00;1.00
4826;DHT22;2427;50.934;6.776;2023-06-10T16:00:38;44.40;1.00
4826;DHT22;2427;50.934;6.776;2023-06-10T16:03:04;44.50;1.00
4826;DHT22;2427;50.934;6.776;2023-06-10T16:05:29;44.40;1.00
4826;DHT22;2427;50.934;6.776;2023-06-10T16:07:55;44.30;1.00
4826;DHT22;2427;50.934;6.776;2023-06-10T16:10:21;44.40;1.00
4826;DHT22;2427;50.934;6.776;2023-06-10T16:12:49;44.30;1.00
4826;DHT22;2427;50.934;6.776;2023-06-10T16:15:15;44.00;1.00
4826;DHT22;2427;50.934;6.776;2023-06-10T16:17:41;43.70;1.00
4826;DHT22;2427;50.934;6.776;2023-06-10T16:20:08;43.90;1.00
4826;DHT22;2427;50.934;6.776;2023-06-10T16:22:34;43.60;1.00
4826;DHT22;2427;50.934;6.776;2023-06-10T16:25:00;42.80;1.00
4826;DHT22;2427;50.934;6.776;2023-06-10T16:27:25;42.60;1.00
4826;DHT22;2427;50.934;6.776;2023-06-10T16:29:54;41.70;1.00
4826;DHT22;2427;50.934;6.776;2023-06-10T16:32:20;40.80;1.00